Aeroparque Buenos Aires, Argentina
Current Conditions -  °F | °C
As of 1:00 AM on Monday 20 Oct 2014 (Local Time) from SABE Reporting Station
Clear Clear  
Wind Chill: 64°   Ceiling: Unl
Heat Index: 64°   Visibility: 6mi
Dew Point: 43°   Wind: 13mph
Humidity: 45%   Direction: 160°SSE
Pressure: 30.12"   Gusts: NA
Location:  34.58°S, 58.43°W
Report Text: SABE 200400Z 16011KT CAVOK 18/06 Q1020
Loading
Personal Weather Stations






























Interactive Weather Map
Tropical Storm Tracking
New forecast layout! Learn more

10-Day Weather Forecast

Advertisements
Track Severe Weather on mobile